Time;durP1;ratioP1;P1;durP2;ratioP2;P2;SDS_P1;SDS_P2;PMS_P1;PMS_P2;Temp;Humidity;BMP_temperature;BMP_pressure;BME280_temperature;BME280_humidity;BME280_pressure;Samples;Min_cycle;Max_cycle;Signal;HPM_P1;HPM_P2
2022/01/02 00:00:03;;;;;;;4.20;2.83;;;10.40;99.90;;;;;;5012806;28;20465;-72
2022/01/02 00:02:31;;;;;;;6.23;3.70;;;10.40;99.90;;;;;;5012526;28;20450;-72
2022/01/02 00:05:06;;;;;;;4.40;2.57;;;10.40;99.90;;;;;;5012381;28;20456;-72
2022/01/02 00:07:34;;;;;;;2.97;2.10;;;10.30;99.90;;;;;;5012785;28;20398;-72
2022/01/02 00:10:04;;;;;;;4.03;1.83;;;10.30;99.90;;;;;;5012413;28;20763;-72
2022/01/02 00:12:33;;;;;;;3.23;2.10;;;10.30;99.90;;;;;;5012359;28;20421;-72
2022/01/02 00:15:01;;;;;;;8.20;2.43;;;10.20;99.90;;;;;;5012644;28;20399;-73
2022/01/02 00:17:29;;;;;;;5.27;2.13;;;10.20;99.90;;;;;;5012570;28;20408;-74
2022/01/02 00:19:57;;;;;;;2.60;2.40;;;10.20;99.90;;;;;;5012294;28;20953;-74
2022/01/02 00:22:34;;;;;;;2.90;1.47;;;10.20;99.90;;;;;;5012349;28;20418;-73
2022/01/02 00:25:03;;;;;;;4.83;1.93;;;10.10;99.90;;;;;;5012377;28;20468;-72
2022/01/02 00:27:31;;;;;;;2.60;2.00;;;10.10;99.90;;;;;;5012458;28;20727;-72
2022/01/02 00:29:57;;;;;;;2.97;2.00;;;10.10;99.90;;;;;;5012008;28;20489;-73
2022/01/02 00:32:23;;;;;;;2.10;1.90;;;10.10;99.90;;;;;;5012212;28;20421;-72
2022/01/02 00:34:51;;;;;;;2.93;2.30;;;10.00;99.90;;;;;;5012233;28;20410;-72
2022/01/02 00:37:17;;;;;;;4.00;2.60;;;9.90;99.90;;;;;;5012335;28;20466;-72
2022/01/02 00:39:43;;;;;;;3.73;1.77;;;9.90;99.90;;;;;;5012184;28;20883;-72
2022/01/02 00:42:17;;;;;;;3.00;2.70;;;9.90;99.90;;;;;;5011844;28;20215;-72
2022/01/02 00:45:03;;;;;;;5.03;2.60;;;9.80;99.90;;;;;;5011799;28;20415;-72
2022/01/02 00:47:56;;;;;;;3.70;2.07;;;9.80;99.90;;;;;;5011898;28;20411;-72
2022/01/02 00:50:33;;;;;;;4.77;2.00;;;9.80;99.90;;;;;;5011911;28;20435;-73
2022/01/02 00:53:01;;;;;;;2.07;1.80;;;9.70;99.90;;;;;;5011790;28;20401;-72
2022/01/02 00:55:30;;;;;;;3.60;2.30;;;9.70;99.90;;;;;;5011688;28;20405;-73
2022/01/02 00:57:58;;;;;;;5.00;2.80;;;9.70;99.90;;;;;;5011666;28;20544;-72
2022/01/02 01:00:24;;;;;;;3.17;2.73;;;9.60;99.90;;;;;;5011288;28;20467;-72
2022/01/02 01:02:53;;;;;;;3.83;2.60;;;9.70;99.90;;;;;;5011061;28;20408;-72
2022/01/02 01:05:25;;;;;;;4.33;2.80;;;9.70;99.90;;;;;;5011504;28;20399;-73
2022/01/02 01:07:53;;;;;;;5.10;2.80;;;9.60;99.90;;;;;;5011741;28;20426;-73
2022/01/02 01:10:21;;;;;;;3.70;2.40;;;9.60;99.90;;;;;;5011292;28;20428;-73
2022/01/02 01:12:52;;;;;;;3.53;2.00;;;9.60;99.90;;;;;;5011227;28;20408;-73
2022/01/02 01:15:18;;;;;;;4.60;1.93;;;9.60;99.90;;;;;;5011350;28;20484;-72
2022/01/02 01:17:45;;;;;;;3.13;2.83;;;9.60;99.90;;;;;;5011318;28;20506;-73
2022/01/02 01:20:14;;;;;;;4.00;2.60;;;9.60;99.90;;;;;;5011256;28;20494;-73
2022/01/02 01:22:45;;;;;;;3.47;2.37;;;9.50;99.90;;;;;;5011018;28;20446;-73
2022/01/02 01:25:15;;;;;;;3.23;1.90;;;9.50;99.90;;;;;;5010864;28;20432;-73
2022/01/02 01:27:40;;;;;;;2.40;2.20;;;9.50;99.90;;;;;;5011052;28;20408;-72
2022/01/02 01:30:08;;;;;;;2.70;2.40;;;9.50;99.90;;;;;;5011027;28;20512;-73
2022/01/02 01:32:33;;;;;;;2.73;2.50;;;9.50;99.90;;;;;;5011021;28;20174;-73
2022/01/02 01:34:58;;;;;;;4.07;2.97;;;9.50;99.90;;;;;;5009429;28;20478;-72
2022/01/02 01:37:24;;;;;;;3.03;2.67;;;9.50;99.90;;;;;;5010975;28;20198;-72
2022/01/02 01:39:50;;;;;;;4.70;2.80;;;9.50;99.90;;;;;;5010656;28;20614;-73
2022/01/02 01:42:26;;;;;;;3.23;1.87;;;9.50;99.90;;;;;;5010978;28;20175;-72
2022/01/02 01:45:28;;;;;;;3.93;1.93;;;9.40;99.90;;;;;;5010945;28;20199;-72
2022/01/02 01:47:37;;;;;;;1.93;1.60;;;9.50;99.90;;;;;;5010889;28;20419;-73
2022/01/02 01:50:03;;;;;;;3.60;2.27;;;9.50;99.90;;;;;;5010657;28;20505;-72
2022/01/02 01:52:28;;;;;;;4.90;2.40;;;9.40;99.90;;;;;;5010721;28;20203;-72
2022/01/02 01:54:54;;;;;;;2.40;1.80;;;9.40;99.90;;;;;;5010923;28;20807;-73
2022/01/02 01:57:19;;;;;;;3.33;1.70;;;9.40;99.90;;;;;;5010873;28;20175;-72
2022/01/02 01:59:48;;;;;;;4.40;2.37;;;9.40;99.90;;;;;;5010745;28;20267;-72
2022/01/02 02:02:15;;;;;;;4.23;2.40;;;9.30;99.90;;;;;;5010853;28;20169;-73
2022/01/02 02:04:41;;;;;;;5.33;2.83;;;9.30;99.90;;;;;;5010539;28;20867;-72
2022/01/02 02:07:07;;;;;;;5.83;2.80;;;9.30;99.90;;;;;;5010817;28;20501;-72
2022/01/02 02:09:46;;;;;;;1.97;1.67;;;9.30;99.90;;;;;;5011014;28;20415;-73
2022/01/02 02:12:12;;;;;;;3.00;2.70;;;9.30;99.90;;;;;;5011313;28;20259;-73
2022/01/02 02:14:39;;;;;;;3.33;2.03;;;9.20;99.90;;;;;;5014676;28;20422;-73
2022/01/02 02:17:05;;;;;;;6.20;3.57;;;9.20;99.90;;;;;;5014951;28;20411;-73
2022/01/02 02:19:30;;;;;;;2.73;2.20;;;9.20;99.90;;;;;;5015069;28;21053;-73
2022/01/02 02:21:55;;;;;;;3.27;2.43;;;9.20;99.90;;;;;;5015162;28;20221;-73
2022/01/02 02:24:21;;;;;;;4.80;2.47;;;9.20;99.90;;;;;;5013530;28;20167;-73
2022/01/02 02:26:48;;;;;;;3.80;2.83;;;9.20;99.90;;;;;;5014535;28;20709;-73
2022/01/02 02:29:13;;;;;;;3.33;2.73;;;9.10;99.90;;;;;;5014751;28;20262;-73
2022/01/02 02:31:41;;;;;;;2.80;2.20;;;9.10;99.90;;;;;;5014759;28;20531;-73
2022/01/02 02:34:06;;;;;;;6.03;3.70;;;9.10;99.90;;;;;;5014427;28;20171;-73
2022/01/02 02:36:32;;;;;;;4.20;2.40;;;9.00;99.90;;;;;;5014311;28;20778;-73
2022/01/02 02:38:57;;;;;;;3.17;2.40;;;9.00;99.90;;;;;;5014193;28;20344;-73
2022/01/02 02:41:23;;;;;;;4.63;3.10;;;9.00;99.90;;;;;;5014115;28;20246;-73
2022/01/02 02:44:03;;;;;;;2.73;2.50;;;9.00;99.90;;;;;;5014242;28;20631;-72
2022/01/02 02:49:12;;;;;;;4.83;2.73;;;9.00;99.90;;;;;;5014424;28;20438;-72
2022/01/02 02:51:51;;;;;;;3.67;3.07;;;9.00;99.90;;;;;;5012960;28;20435;-73
2022/01/02 02:54:20;;;;;;;2.27;2.00;;;9.00;99.90;;;;;;5014346;28;20319;-73
2022/01/02 02:56:56;;;;;;;4.50;2.77;;;9.00;99.90;;;;;;5014103;28;20467;-72
2022/01/02 02:59:31;;;;;;;2.23;2.03;;;8.90;99.90;;;;;;5013912;28;20512;-73
2022/01/02 03:01:58;;;;;;;4.23;2.93;;;8.90;99.90;;;;;;5013707;28;20460;-72
2022/01/02 03:04:24;;;;;;;3.17;2.43;;;8.90;99.90;;;;;;5013555;28;20430;-72
2022/01/02 03:06:50;;;;;;;6.97;4.60;;;8.90;99.90;;;;;;5013844;28;20441;-72
2022/01/02 03:09:24;;;;;;;2.30;1.70;;;8.90;99.90;;;;;;5013624;28;20463;-72
2022/01/02 03:11:50;;;;;;;8.00;2.20;;;8.90;99.90;;;;;;5013620;28;20447;-72
2022/01/02 03:14:15;;;;;;;3.03;2.13;;;8.90;99.90;;;;;;5013458;28;20403;-72
2022/01/02 03:16:41;;;;;;;14.63;3.13;;;9.00;99.90;;;;;;5013077;28;20183;-71
2022/01/02 03:19:07;;;;;;;4.40;3.00;;;8.90;99.90;;;;;;5013264;28;20603;-72
2022/01/02 03:21:32;;;;;;;2.70;2.47;;;8.90;99.90;;;;;;5013519;28;20198;-72
2022/01/02 03:23:58;;;;;;;2.97;2.67;;;8.90;99.90;;;;;;5012476;28;20897;-72
2022/01/02 03:26:23;;;;;;;3.23;2.23;;;8.90;99.90;;;;;;5013182;28;20168;-73
2022/01/02 03:28:49;;;;;;;2.33;2.13;;;8.90;99.90;;;;;;5013326;28;20162;-71
2022/01/02 03:31:15;;;;;;;2.43;1.70;;;8.90;99.90;;;;;;5012841;28;20259;-72
2022/01/02 03:33:40;;;;;;;3.07;2.77;;;8.90;99.90;;;;;;5013244;28;20517;-72
2022/01/02 03:36:06;;;;;;;2.50;1.90;;;8.90;99.90;;;;;;5013152;28;20230;-73
2022/01/02 03:38:32;;;;;;;4.80;2.23;;;8.90;99.90;;;;;;5013079;28;20178;-72
2022/01/02 03:40:57;;;;;;;4.03;2.37;;;8.90;99.90;;;;;;5012930;28;20538;-72
2022/01/02 03:43:23;;;;;;;3.20;2.90;;;8.90;99.90;;;;;;5012831;28;20183;-72
2022/01/02 03:45:49;;;;;;;3.83;2.90;;;8.90;99.90;;;;;;5012808;28;20165;-72
2022/01/02 03:48:14;;;;;;;3.00;2.50;;;8.90;99.90;;;;;;5012958;28;20173;-72
2022/01/02 03:50:40;;;;;;;3.23;2.33;;;8.90;99.90;;;;;;5012937;28;20719;-72
2022/01/02 03:53:06;;;;;;;2.33;2.13;;;8.90;99.90;;;;;;5012992;28;20260;-72
2022/01/02 03:55:31;;;;;;;4.40;2.73;;;8.90;99.90;;;;;;5013067;28;20175;-73
2022/01/02 03:57:57;;;;;;;4.17;2.10;;;8.90;99.90;;;;;;5012610;28;20173;-72
2022/01/02 04:00:22;;;;;;;2.03;1.83;;;8.90;99.90;;;;;;5012408;28;20239;-73
2022/01/02 04:02:48;;;;;;;2.10;1.90;;;8.90;99.90;;;;;;5012540;28;20315;-73
2022/01/02 04:05:15;;;;;;;6.07;2.73;;;8.90;99.90;;;;;;5012442;28;20664;-73
2022/01/02 04:07:41;;;;;;;4.43;2.27;;;8.90;99.90;;;;;;5012707;28;20165;-73
2022/01/02 04:10:11;;;;;;;3.40;2.63;;;8.90;99.90;;;;;;5012688;28;20430;-73
2022/01/02 04:12:37;;;;;;;3.13;2.27;;;8.90;99.90;;;;;;5012619;28;20411;-73
2022/01/02 04:15:05;;;;;;;4.87;2.73;;;8.90;99.90;;;;;;5012419;28;20404;-71
2022/01/02 04:17:32;;;;;;;3.20;1.83;;;8.90;99.90;;;;;;5012296;28;20472;-72
2022/01/02 04:19:58;;;;;;;5.07;1.80;;;8.90;99.90;;;;;;5012072;28;21052;-72
2022/01/02 04:22:23;;;;;;;2.77;2.27;;;8.90;99.90;;;;;;5012154;28;20498;-72
2022/01/02 04:24:49;;;;;;;2.27;1.93;;;8.90;99.90;;;;;;5012189;28;20171;-72
2022/01/02 04:27:17;;;;;;;4.83;2.63;;;8.90;99.90;;;;;;5012274;28;20164;-74
2022/01/02 04:29:42;;;;;;;2.10;1.93;;;8.90;99.90;;;;;;5011916;28;20188;-74
2022/01/02 04:32:08;;;;;;;3.33;2.20;;;8.90;99.90;;;;;;5034678;23;20495;-70
2022/01/02 04:34:33;;;;;;;3.50;2.03;;;8.90;99.90;;;;;;5012107;28;20172;-70
2022/01/02 04:36:59;;;;;;;3.50;2.20;;;8.80;99.90;;;;;;5011421;28;20167;-70
2022/01/02 04:39:24;;;;;;;3.40;1.67;;;8.80;99.90;;;;;;5012240;28;20556;-70
2022/01/02 04:41:49;;;;;;;6.83;2.73;;;8.80;99.90;;;;;;5012176;28;20234;-70
2022/01/02 04:44:15;;;;;;;2.80;2.47;;;8.80;99.90;;;;;;5011932;28;20651;-70
2022/01/02 04:46:40;;;;;;;3.93;3.50;;;8.80;99.90;;;;;;5011707;28;20195;-69
2022/01/02 04:49:06;;;;;;;2.60;2.37;;;8.80;99.90;;;;;;5011792;28;20257;-70
2022/01/02 04:51:31;;;;;;;2.83;2.60;;;8.80;99.90;;;;;;5011864;28;20649;-70
2022/01/02 04:53:57;;;;;;;2.50;1.97;;;8.80;99.90;;;;;;5011770;28;20324;-70
2022/01/02 04:56:22;;;;;;;4.27;2.70;;;8.80;99.90;;;;;;5011731;28;20170;-70
2022/01/02 04:58:48;;;;;;;2.57;2.00;;;8.80;99.90;;;;;;5011781;28;20643;-71
2022/01/02 05:01:14;;;;;;;2.33;1.93;;;8.80;99.90;;;;;;5011550;28;20211;-70
2022/01/02 05:03:43;;;;;;;3.50;2.10;;;8.70;99.90;;;;;;5011735;28;20658;-71
2022/01/02 05:06:10;;;;;;;2.80;2.47;;;8.80;99.90;;;;;;5011559;28;20440;-67
2022/01/02 05:08:36;;;;;;;3.53;2.00;;;8.70;99.90;;;;;;5011571;28;20411;-70
2022/01/02 05:11:02;;;;;;;2.90;2.03;;;8.70;99.90;;;;;;5011534;28;20459;-69
2022/01/02 05:13:28;;;;;;;5.57;3.30;;;8.70;99.90;;;;;;5011757;28;20410;-69
2022/01/02 05:15:53;;;;;;;6.30;2.47;;;8.60;99.90;;;;;;5011630;28;20413;-70
2022/01/02 05:18:20;;;;;;;2.20;2.00;;;8.60;99.90;;;;;;5011868;28;20199;-70
2022/01/02 05:20:46;;;;;;;3.70;3.07;;;8.50;99.90;;;;;;5012003;28;20232;-70
2022/01/02 05:23:13;;;;;;;2.00;1.70;;;8.50;99.90;;;;;;5011837;28;20503;-70
2022/01/02 05:25:39;;;;;;;2.93;2.70;;;8.50;99.90;;;;;;5011513;28;20409;-69
2022/01/02 05:28:04;;;;;;;3.20;2.60;;;8.50;99.90;;;;;;5011559;28;20479;-70
2022/01/02 05:30:30;;;;;;;2.70;2.50;;;8.50;99.90;;;;;;5011470;28;20266;-70
2022/01/02 05:32:55;;;;;;;5.13;2.97;;;8.50;99.90;;;;;;5011554;28;20201;-69
2022/01/02 05:35:21;;;;;;;3.77;2.20;;;8.50;99.90;;;;;;5011191;28;20169;-71
2022/01/02 05:37:46;;;;;;;5.07;2.40;;;8.50;99.90;;;;;;5011359;28;20223;-69
2022/01/02 05:40:12;;;;;;;2.57;2.37;;;8.50;99.90;;;;;;5011281;28;20198;-70
2022/01/02 05:42:37;;;;;;;4.17;2.80;;;8.60;99.90;;;;;;5011086;28;20192;-69
2022/01/02 05:45:03;;;;;;;3.37;2.27;;;8.60;99.90;;;;;;5011497;28;20161;-70
2022/01/02 05:47:28;;;;;;;4.00;3.03;;;8.60;99.90;;;;;;5012586;28;20891;-70
2022/01/02 05:49:54;;;;;;;5.97;2.90;;;8.60;99.90;;;;;;5015385;28;20415;-70
2022/01/02 05:52:19;;;;;;;2.77;2.53;;;8.60;99.90;;;;;;5015213;28;20196;-70
2022/01/02 05:54:45;;;;;;;3.00;2.53;;;8.60;99.90;;;;;;5015120;28;20176;-71
2022/01/02 05:57:10;;;;;;;2.43;2.23;;;8.50;99.90;;;;;;5015044;28;20203;-71
2022/01/02 05:59:37;;;;;;;3.50;3.20;;;8.50;99.90;;;;;;5014986;28;20545;-71
2022/01/02 06:02:02;;;;;;;3.17;2.73;;;8.50;99.90;;;;;;5014992;28;20234;-71
2022/01/02 06:04:28;;;;;;;6.13;2.20;;;8.50;99.90;;;;;;5014824;28;20438;-71
2022/01/02 06:06:54;;;;;;;3.60;2.87;;;8.50;99.90;;;;;;5014835;28;20176;-70
2022/01/02 06:09:19;;;;;;;4.37;2.80;;;8.50;99.90;;;;;;5014873;28;20200;-71
2022/01/02 06:11:44;;;;;;;3.80;2.83;;;8.50;99.90;;;;;;5014479;28;20272;-70
2022/01/02 06:14:10;;;;;;;3.40;3.10;;;8.50;99.90;;;;;;5014874;28;20180;-71
2022/01/02 06:16:36;;;;;;;2.50;1.77;;;8.50;99.90;;;;;;5014623;28;20214;-71
2022/01/02 06:19:01;;;;;;;5.43;2.37;;;8.50;99.90;;;;;;5014514;28;20412;-71
2022/01/02 06:21:27;;;;;;;4.23;3.03;;;8.50;99.90;;;;;;5014718;28;20197;-71
2022/01/02 06:23:52;;;;;;;2.70;2.37;;;8.50;99.90;;;;;;5014539;28;20175;-71
2022/01/02 06:26:18;;;;;;;2.70;2.33;;;8.50;99.90;;;;;;5014673;28;20182;-71
2022/01/02 06:28:43;;;;;;;4.13;3.73;;;8.50;99.90;;;;;;5014407;28;20209;-70
2022/01/02 06:31:09;;;;;;;4.20;2.63;;;8.50;99.90;;;;;;5014361;28;20742;-71
2022/01/02 06:33:35;;;;;;;5.03;3.20;;;8.60;99.90;;;;;;5014138;28;20173;-70
2022/01/02 06:36:00;;;;;;;3.47;2.57;;;8.60;99.90;;;;;;5014332;28;20176;-70
2022/01/02 06:38:26;;;;;;;2.03;1.70;;;8.60;99.90;;;;;;5014614;28;20749;-70
2022/01/02 06:40:52;;;;;;;7.50;2.03;;;8.70;99.90;;;;;;5013874;28;20209;-71
2022/01/02 06:43:17;;;;;;;5.03;2.87;;;8.70;99.90;;;;;;5014216;28;20173;-71
2022/01/02 06:45:46;;;;;;;2.37;2.17;;;8.70;99.90;;;;;;5014410;28;20176;-71
2022/01/02 06:48:12;;;;;;;5.10;3.03;;;8.80;99.90;;;;;;5014687;28;20555;-71
2022/01/02 06:50:39;;;;;;;4.37;3.10;;;8.80;99.90;;;;;;5014250;28;20441;-71
2022/01/02 06:53:05;;;;;;;5.40;1.80;;;8.80;99.90;;;;;;5014298;28;20444;-71
2022/01/02 06:55:30;;;;;;;4.20;2.60;;;8.80;99.90;;;;;;5014336;28;20442;-71
2022/01/02 06:57:56;;;;;;;3.77;2.77;;;8.80;99.90;;;;;;5014280;28;20175;-71
2022/01/02 07:00:21;;;;;;;4.47;2.90;;;8.80;99.90;;;;;;5013018;28;20722;-71
2022/01/02 07:02:47;;;;;;;4.17;2.50;;;8.80;99.90;;;;;;5014628;28;20169;-71
2022/01/02 07:05:12;;;;;;;6.17;2.90;;;8.90;99.90;;;;;;5014263;28;20168;-71
2022/01/02 07:07:42;;;;;;;3.43;2.40;;;8.90;99.90;;;;;;5014705;28;20181;-71
2022/01/02 07:10:12;;;;;;;2.93;1.70;;;9.00;99.90;;;;;;5014272;28;20176;-71
2022/01/02 07:12:37;;;;;;;2.13;1.60;;;9.00;99.90;;;;;;5014839;28;20445;-71
2022/01/02 07:15:04;;;;;;;4.60;2.60;;;9.00;99.90;;;;;;5024181;28;20463;-71
2022/01/02 07:17:30;;;;;;;4.37;2.73;;;9.10;99.90;;;;;;5023870;28;20233;-71
2022/01/02 07:19:55;;;;;;;4.23;2.00;;;9.10;99.90;;;;;;5022983;28;20449;-71
2022/01/02 07:22:21;;;;;;;3.33;2.47;;;9.20;99.90;;;;;;5013476;28;20215;-71
2022/01/02 07:24:51;;;;;;;4.37;2.10;;;9.20;99.90;;;;;;5013371;28;20544;-71
2022/01/02 07:27:17;;;;;;;6.33;2.77;;;9.20;99.90;;;;;;5013781;28;20171;-71
2022/01/02 07:29:43;;;;;;;3.50;2.30;;;9.20;99.90;;;;;;5013623;28;20409;-70
2022/01/02 07:32:08;;;;;;;2.30;2.10;;;9.20;99.90;;;;;;5013231;28;20453;-71
2022/01/02 07:34:34;;;;;;;2.93;2.30;;;9.20;99.90;;;;;;5013380;28;20178;-71
2022/01/02 07:37:00;;;;;;;2.53;2.30;;;9.20;99.90;;;;;;5013295;28;20273;-71
2022/01/02 07:39:25;;;;;;;3.47;2.60;;;9.20;99.90;;;;;;5013283;28;20196;-70
2022/01/02 07:41:51;;;;;;;1.40;1.30;;;9.20;99.90;;;;;;5013193;28;20438;-71
2022/01/02 07:44:16;;;;;;;3.33;3.03;;;9.30;99.90;;;;;;5013371;28;20197;-71
2022/01/02 07:46:42;;;;;;;3.83;1.87;;;9.30;99.90;;;;;;5013157;28;20659;-71
2022/01/02 07:49:07;;;;;;;2.70;1.43;;;9.30;99.90;;;;;;5013267;28;20488;-71
2022/01/02 07:51:33;;;;;;;3.10;2.00;;;9.30;99.90;;;;;;5013026;28;20199;-71
2022/01/02 07:54:00;;;;;;;2.50;2.30;;;9.40;99.90;;;;;;5012932;28;20168;-71
2022/01/02 07:56:25;;;;;;;1.70;1.60;;;9.40;99.90;;;;;;5012987;28;20173;-71
2022/01/02 07:58:51;;;;;;;2.90;2.10;;;9.40;99.90;;;;;;5012989;28;20409;-70
2022/01/02 08:01:17;;;;;;;2.57;2.33;;;9.40;99.90;;;;;;5012954;28;20237;-70
2022/01/02 08:03:42;;;;;;;1.90;1.80;;;9.40;99.90;;;;;;5012937;28;20172;-70
2022/01/02 08:06:07;;;;;;;4.60;1.73;;;9.50;99.90;;;;;;5013086;28;20178;-70
2022/01/02 08:08:33;;;;;;;2.80;2.23;;;9.50;99.90;;;;;;5013082;28;20530;-70
2022/01/02 08:10:58;;;;;;;2.07;1.90;;;9.80;99.90;;;;;;5012709;28;20187;-69
2022/01/02 08:13:24;;;;;;;1.63;1.53;;;9.70;99.90;;;;;;5013234;28;20206;-70
2022/01/02 08:15:49;;;;;;;2.63;1.93;;;9.80;99.90;;;;;;5013193;28;20570;-70
2022/01/02 08:18:15;;;;;;;3.33;2.63;;;9.70;99.90;;;;;;5013038;28;20244;-70
2022/01/02 08:20:45;;;;;;;3.40;2.13;;;9.80;99.90;;;;;;5012857;28;20208;-70
2022/01/02 08:23:11;;;;;;;2.47;1.77;;;9.80;99.90;;;;;;5013026;28;20431;-69
2022/01/02 08:25:37;;;;;;;2.53;2.33;;;9.90;99.90;;;;;;5012764;28;20844;-69
2022/01/02 08:28:02;;;;;;;2.33;1.90;;;9.90;99.90;;;;;;5013039;28;20403;-69
2022/01/02 08:30:28;;;;;;;2.23;1.83;;;10.00;99.90;;;;;;5011393;28;20173;-70
2022/01/02 08:32:54;;;;;;;2.20;2.00;;;10.00;99.90;;;;;;5012994;28;20175;-69
2022/01/02 08:35:19;;;;;;;3.53;2.07;;;10.10;99.90;;;;;;5012843;28;20171;-71
2022/01/02 08:37:45;;;;;;;2.30;1.97;;;10.10;99.90;;;;;;5012669;28;20423;-71
2022/01/02 08:40:10;;;;;;;3.93;1.70;;;10.20;99.90;;;;;;5012462;28;20200;-71
2022/01/02 08:42:36;;;;;;;3.80;2.20;;;10.10;99.90;;;;;;5012363;28;20191;-70
2022/01/02 08:45:01;;;;;;;1.70;1.60;;;10.20;99.90;;;;;;5012227;28;20164;-70
2022/01/02 08:47:27;;;;;;;2.40;1.40;;;10.20;99.90;;;;;;5012420;28;20295;-70
2022/01/02 08:49:53;;;;;;;3.10;2.00;;;10.20;99.90;;;;;;5012704;28;20168;-70
2022/01/02 08:52:19;;;;;;;1.93;1.47;;;10.30;99.90;;;;;;5012112;28;20210;-70
2022/01/02 08:54:44;;;;;;;1.57;1.47;;;10.30;99.90;;;;;;5010803;28;20415;-70
2022/01/02 08:57:10;;;;;;;1.57;1.47;;;10.30;99.90;;;;;;5012206;28;20491;-69
2022/01/02 08:59:35;;;;;;;2.20;1.70;;;10.30;99.90;;;;;;5012226;28;20192;-72
2022/01/02 09:02:01;;;;;;;7.60;1.80;;;10.40;99.90;;;;;;5012144;28;20193;-71
2022/01/02 09:04:26;;;;;;;1.40;1.13;;;10.40;99.90;;;;;;5012200;28;20168;-71
2022/01/02 09:06:52;;;;;;;2.20;1.50;;;10.40;99.90;;;;;;5012428;28;20192;-70
2022/01/02 09:09:18;;;;;;;2.43;2.23;;;10.40;99.90;;;;;;5012139;28;20168;-70
2022/01/02 09:11:43;;;;;;;2.23;1.40;;;10.30;99.90;;;;;;5012102;28;20188;-70
2022/01/02 09:14:09;;;;;;;1.53;1.43;;;10.30;99.90;;;;;;5012342;28;20642;-70
2022/01/02 09:16:34;;;;;;;3.13;1.80;;;10.50;99.90;;;;;;5012184;28;20247;-70
2022/01/02 09:19:00;;;;;;;2.07;1.87;;;10.40;99.90;;;;;;5012105;28;20168;-71
2022/01/02 09:21:25;;;;;;;3.20;1.77;;;10.50;99.90;;;;;;5011568;28;20203;-70
2022/01/02 09:23:51;;;;;;;3.17;1.90;;;10.60;99.90;;;;;;5011564;28;20669;-70
2022/01/02 09:26:16;;;;;;;1.70;1.60;;;10.60;99.90;;;;;;5010453;28;20173;-70
2022/01/02 09:28:42;;;;;;;3.23;2.13;;;10.70;99.90;;;;;;5011868;28;20200;-70
2022/01/02 09:31:07;;;;;;;2.20;1.37;;;10.60;99.90;;;;;;5011600;28;20241;-70
2022/01/02 09:33:33;;;;;;;2.20;1.57;;;10.60;99.90;;;;;;5012148;28;20168;-70
2022/01/02 09:35:59;;;;;;;2.57;2.37;;;10.80;99.90;;;;;;5011721;28;20199;-74
2022/01/02 09:38:25;;;;;;;4.73;1.70;;;10.80;99.90;;;;;;5011764;28;20635;-68
2022/01/02 09:40:51;;;;;;;44.00;23.30;;;10.80;99.90;;;;;;5010360;28;20508;-68
2022/01/02 09:43:18;;;;;;;2.90;1.87;;;10.80;99.90;;;;;;5011821;28;20403;-70
2022/01/02 09:45:48;;;;;;;3.87;1.60;;;10.80;99.90;;;;;;5011602;28;20981;-69
2022/01/02 09:48:14;;;;;;;2.00;1.87;;;10.80;99.90;;;;;;5011654;28;20832;-72
2022/01/02 09:50:40;;;;;;;1.73;1.63;;;10.80;99.90;;;;;;5011237;28;20427;-70
2022/01/02 09:53:07;;;;;;;3.93;1.73;;;10.80;99.90;;;;;;5011149;28;20426;-70
2022/01/02 09:55:33;;;;;;;3.20;1.73;;;10.90;99.90;;;;;;5011566;28;20411;-70
2022/01/02 09:58:00;;;;;;;1.80;1.37;;;11.10;99.90;;;;;;5011683;28;20514;-70
2022/01/02 10:00:27;;;;;;;1.87;1.77;;;11.10;99.90;;;;;;5011231;28;20447;-70
2022/01/02 10:03:01;;;;;;;2.93;1.40;;;11.10;99.90;;;;;;5011369;28;20457;-70
2022/01/02 10:05:28;;;;;;;2.50;2.30;;;11.10;99.90;;;;;;5011215;28;20418;-73
2022/01/02 10:07:55;;;;;;;2.10;1.90;;;11.10;99.90;;;;;;5011512;28;20430;-71
2022/01/02 10:10:32;;;;;;;1.50;1.40;;;11.10;99.90;;;;;;5011375;28;20409;-71
2022/01/02 10:13:01;;;;;;;1.60;1.27;;;11.10;99.90;;;;;;5011448;28;20917;-71
2022/01/02 10:15:28;;;;;;;2.37;1.43;;;11.10;99.90;;;;;;5011272;28;20855;-72
2022/01/02 10:18:10;;;;;;;2.50;1.60;;;11.10;99.90;;;;;;5011683;28;20461;-71
2022/01/02 10:20:41;;;;;;;2.80;1.10;;;11.10;99.90;;;;;;5011555;28;20486;-71
2022/01/02 10:23:19;;;;;;;1.70;1.17;;;11.10;99.90;;;;;;5011186;28;20843;-71
2022/01/02 10:25:50;;;;;;;3.30;3.00;;;11.20;99.90;;;;;;5011220;28;21084;-70
2022/01/02 10:28:31;;;;;;;1.50;1.40;;;11.30;99.90;;;;;;5011312;28;20418;-71
2022/01/02 10:31:08;;;;;;;1.73;1.27;;;11.30;99.90;;;;;;5010961;28;20470;-71
2022/01/02 10:33:58;;;;;;;2.23;2.03;;;11.30;99.90;;;;;;5051319;22;20421;-71
2022/01/02 10:36:32;;;;;;;2.80;1.70;;;11.20;99.90;;;;;;5013255;28;20419;-73
2022/01/02 10:39:01;;;;;;;3.97;1.93;;;11.20;99.90;;;;;;5015579;28;20402;-71
2022/01/02 10:41:37;;;;;;;2.23;1.40;;;11.20;99.90;;;;;;5015403;28;20465;-70
2022/01/02 10:44:29;;;;;;;2.03;1.87;;;11.20;99.90;;;;;;5015589;28;20492;-72
2022/01/02 10:47:15;;;;;;;1.40;1.30;;;11.20;99.90;;;;;;5015250;28;20730;-71
2022/01/02 10:50:04;;;;;;;1.97;1.77;;;11.10;99.90;;;;;;5015652;28;20940;-71
2022/01/02 10:52:31;;;;;;;4.20;1.47;;;11.10;99.90;;;;;;5015384;28;20407;-71
2022/01/02 10:54:59;;;;;;;2.00;1.50;;;11.10;99.90;;;;;;5015146;28;20785;-71
2022/01/02 10:57:26;;;;;;;2.00;1.57;;;11.10;99.90;;;;;;5015491;28;20411;-72
2022/01/02 10:59:58;;;;;;;1.63;1.40;;;11.00;99.90;;;;;;5015066;28;20479;-71
2022/01/02 11:02:25;;;;;;;1.97;1.40;;;11.10;99.90;;;;;;5015334;28;20411;-71
2022/01/02 11:05:04;;;;;;;5.60;1.60;;;11.10;99.90;;;;;;5015288;28;20959;-71
2022/01/02 11:07:39;;;;;;;1.13;1.03;;;11.10;99.90;;;;;;5015384;28;20417;-71
2022/01/02 11:10:06;;;;;;;2.50;2.30;;;11.00;99.90;;;;;;5015615;28;20407;-72
2022/01/02 11:12:32;;;;;;;2.87;2.23;;;11.10;99.90;;;;;;5015772;28;20461;-71
2022/01/02 11:14:58;;;;;;;1.70;1.60;;;11.00;99.90;;;;;;5015421;28;20518;-72
2022/01/02 11:17:24;;;;;;;6.07;1.43;;;11.10;99.90;;;;;;5015457;28;20453;-71
2022/01/02 11:19:50;;;;;;;2.87;1.40;;;11.00;99.90;;;;;;5015161;28;20439;-71
2022/01/02 11:22:28;;;;;;;1.77;1.33;;;11.00;99.90;;;;;;5014856;28;20415;-71
2022/01/02 11:25:28;;;;;;;2.20;1.40;;;11.00;99.90;;;;;;5013276;28;20786;-71
2022/01/02 11:28:02;;;;;;;2.43;1.57;;;11.00;99.90;;;;;;5011211;28;20407;-72
2022/01/02 11:30:31;;;;;;;2.03;1.83;;;11.00;99.90;;;;;;5017518;28;20422;-71
2022/01/02 11:33:12;;;;;;;2.00;1.23;;;11.00;99.90;;;;;;5018600;28;20407;-72
2022/01/02 11:35:40;;;;;;;5.37;1.57;;;11.00;99.90;;;;;;5018623;28;20450;-71
2022/01/02 11:38:06;;;;;;;2.13;1.87;;;10.90;99.90;;;;;;5016402;28;20423;-72
2022/01/02 11:40:56;;;;;;;1.70;1.60;;;10.90;99.90;;;;;;5014890;28;20450;-71
2022/01/02 11:43:47;;;;;;;2.50;1.20;;;10.90;99.90;;;;;;5014095;28;20756;-72
2022/01/02 11:46:14;;;;;;;3.27;2.27;;;10.90;99.90;;;;;;5013682;28;20431;-71
2022/01/02 11:48:39;;;;;;;1.23;1.00;;;11.00;99.90;;;;;;5014420;28;20494;-72
2022/01/02 11:51:05;;;;;;;3.60;1.20;;;11.00;99.90;;;;;;5014911;28;20498;-72
2022/01/02 11:53:34;;;;;;;2.63;2.43;;;10.90;99.90;;;;;;5014315;28;20188;-71
2022/01/02 11:56:00;;;;;;;2.50;1.87;;;11.00;99.90;;;;;;5014397;28;20230;-71
2022/01/02 11:58:38;;;;;;;2.70;1.80;;;11.00;99.90;;;;;;5011075;28;20409;-71
2022/01/02 12:01:04;;;;;;;1.60;1.50;;;10.90;99.90;;;;;;5012314;28;21051;-72
2022/01/02 12:03:42;;;;;;;1.33;1.23;;;10.90;99.90;;;;;;5013855;28;20493;-71
2022/01/02 12:06:24;;;;;;;2.30;2.10;;;10.80;99.90;;;;;;5014238;28;20505;-71
2022/01/02 12:08:52;;;;;;;1.47;1.37;;;10.80;99.90;;;;;;5014286;28;20407;-71
2022/01/02 12:11:32;;;;;;;2.63;1.70;;;10.90;99.90;;;;;;5013791;28;20407;-71
2022/01/02 12:14:10;;;;;;;2.90;2.07;;;10.80;99.90;;;;;;5013669;28;20527;-72
2022/01/02 12:16:48;;;;;;;3.03;1.27;;;10.90;99.90;;;;;;5013763;28;20430;-72
2022/01/02 12:19:14;;;;;;;2.80;2.60;;;10.80;99.90;;;;;;5008752;28;20435;-73
2022/01/02 12:22:13;;;;;;;3.43;2.40;;;10.80;99.90;;;;;;4994021;28;20401;-73
2022/01/02 12:24:40;;;;;;;4.23;2.00;;;10.80;99.90;;;;;;4994503;28;20531;-74
2022/01/02 12:27:13;;;;;;;2.17;1.90;;;10.80;99.90;;;;;;5012939;28;20505;-73
2022/01/02 12:29:40;;;;;;;2.40;1.97;;;10.80;99.90;;;;;;5014347;28;20411;-70
2022/01/02 12:32:07;;;;;;;1.53;1.40;;;10.80;99.90;;;;;;5013619;28;20407;-70
2022/01/02 12:34:33;;;;;;;4.10;2.07;;;10.80;99.90;;;;;;5012672;28;20985;-71
2022/01/02 12:36:59;;;;;;;1.63;1.50;;;10.80;99.90;;;;;;5013260;28;20423;-71
2022/01/02 12:39:34;;;;;;;4.33;1.60;;;10.70;99.90;;;;;;5012958;28;20419;-71
2022/01/02 12:42:03;;;;;;;2.20;1.67;;;10.70;99.90;;;;;;5013397;28;20399;-70
2022/01/02 12:44:31;;;;;;;2.60;2.13;;;10.70;99.90;;;;;;5015050;28;20828;-71
2022/01/02 12:46:59;;;;;;;4.03;1.80;;;10.70;99.90;;;;;;5014048;28;20411;-72
2022/01/02 12:49:30;;;;;;;15.60;2.67;;;10.70;99.90;;;;;;5013407;28;20414;-72
2022/01/02 12:51:58;;;;;;;23.63;13.53;;;10.80;99.90;;;;;;5013091;28;20403;-71
2022/01/02 12:54:29;;;;;;;2.33;1.73;;;10.80;99.90;;;;;;5012912;28;20917;-71
2022/01/02 12:57:01;;;;;;;4.27;3.30;;;10.70;99.90;;;;;;5012217;28;20490;-71
2022/01/02 12:59:37;;;;;;;29.53;12.90;;;10.80;99.90;;;;;;5012734;28;20403;-71